Time;durP1;ratioP1;P1;durP2;ratioP2;P2;SDS_P1;SDS_P2;PMS_P1;PMS_P2;Temp;Humidity;BMP_temperature;BMP_pressure;BME280_temperature;BME280_humidity;BME280_pressure;Samples;Min_cycle;Max_cycle;Signal;HPM_P1;HPM_P2
2022/07/26 00:01:11;;;;;;;;;;;;;;;19.19;100.00;-25607.25;5071298;28;20349;-77
2022/07/26 00:03:37;;;;;;;;;;;;;;;18.99;100.00;-25601.63;5070395;28;19966;-76
2022/07/26 00:06:02;;;;;;;;;;;;;;;18.99;100.00;-25601.63;5070731;28;20383;-79
2022/07/26 00:08:27;;;;;;;;;;;;;;;18.95;100.00;-25600.47;5070793;28;20414;-76
2022/07/26 00:10:52;;;;;;;;;;;;;;;18.81;100.00;-25596.56;5070700;28;20016;-73
2022/07/26 00:13:19;;;;;;;;;;;;;;;18.84;100.00;-25597.44;5069834;28;20377;-78
2022/07/26 00:15:46;;;;;;;;;;;;;;;18.77;100.00;-25595.56;5070115;28;19923;-76
2022/07/26 00:18:12;;;;;;;;;;;;;;;18.81;100.00;-25596.72;5070235;28;20019;-75
2022/07/26 00:20:38;;;;;;;;;;;;;;;18.77;100.00;-25595.41;5070951;28;20006;-74
2022/07/26 00:23:03;;;;;;;;;;;;;;;18.77;100.00;-25595.41;5069962;28;19962;-75
2022/07/26 00:25:29;;;;;;;;;;;;;;;18.70;100.00;-25593.53;5070414;28;19921;-75
2022/07/26 00:27:54;;;;;;;;;;;;;;;18.68;100.00;-25592.94;5070502;28;19916;-74
2022/07/26 00:30:19;;;;;;;;;;;;;;;18.73;100.00;-25594.41;5069696;28;20411;-74
2022/07/26 00:32:46;;;;;;;;;;;;;;;18.69;100.00;-25593.25;5070534;28;20030;-74
2022/07/26 00:35:11;;;;;;;;;;;;;;;18.68;100.00;-25592.94;5070233;28;19966;-78
2022/07/26 00:37:37;;;;;;;;;;;;;;;18.54;100.00;-25588.91;5070133;28;19999;-73
2022/07/26 00:40:03;;;;;;;;;;;;;;;18.63;100.00;-25591.66;5069848;28;19917;-75
2022/07/26 00:42:28;;;;;;;;;;;;;;;18.58;100.00;-25590.06;5070040;28;19917;-75
2022/07/26 00:44:54;;;;;;;;;;;;;;;18.48;100.00;-25587.31;5069885;28;20403;-76
2022/07/26 00:47:19;;;;;;;;;;;;;;;18.53;100.00;-25588.75;5070515;28;19920;-75
2022/07/26 00:49:44;;;;;;;;;;;;;;;18.44;100.00;-25586.31;5070040;28;20007;-77
2022/07/26 00:52:10;;;;;;;;;;;;;;;18.39;100.00;-25584.72;5088945;28;19966;-74
2022/07/26 00:54:37;;;;;;;;;;;;;;;18.37;100.00;-25584.13;5090537;28;19923;-74
2022/07/26 00:57:02;;;;;;;;;;;;;;;18.37;100.00;-25584.13;5089766;28;20019;-77
2022/07/26 00:59:28;;;;;;;;;;;;;;;18.29;100.00;-25582.09;5089960;28;19951;-75
2022/07/26 01:01:53;;;;;;;;;;;;;;;18.28;100.00;-25581.81;5090470;28;19920;-74
2022/07/26 01:04:18;;;;;;;;;;;;;;;18.25;100.00;-25580.94;5089926;28;19920;-75
2022/07/26 01:06:44;;;;;;;;;;;;;;;18.22;100.00;-25579.94;5089916;28;19916;-74
2022/07/26 01:09:09;;;;;;;;;;;;;;;18.23;100.00;-25580.22;5090256;28;19961;-73
2022/07/26 01:11:34;;;;;;;;;;;;;;;18.20;100.00;-25579.50;5089386;28;19950;-73
2022/07/26 01:14:00;;;;;;;;;;;;;;;18.04;100.00;-25574.88;5089205;28;19939;-74
2022/07/26 01:16:26;;;;;;;;;;;;;;;17.99;100.00;-25573.41;5091415;28;19961;-77
2022/07/26 01:18:51;;;;;;;;;;;;;;;17.94;100.00;-25572.13;5090292;28;19920;-74
2022/07/26 01:21:16;;;;;;;;;;;;;;;17.88;100.00;-25570.53;5089492;28;19916;-77
2022/07/26 01:23:42;;;;;;;;;;;;;;;17.83;100.00;-25569.06;5090551;28;20375;-76
2022/07/26 01:26:08;;;;;;;;;;;;;;;17.83;100.00;-25569.06;5089889;28;20019;-79
2022/07/26 01:28:37;;;;;;;;;;;;;;;17.80;100.00;-25568.06;5091503;28;20368;-78
2022/07/26 01:31:03;;;;;;;;;;;;;;;17.73;100.00;-25566.31;5089800;28;19926;-76
2022/07/26 01:33:28;;;;;;;;;;;;;;;17.71;100.00;-25565.75;5089899;28;19917;-75
2022/07/26 01:35:54;;;;;;;;;;;;;;;17.72;100.00;-25565.88;5090306;28;19938;-75
2022/07/26 01:38:19;;;;;;;;;;;;;;;17.64;100.00;-25563.56;5073520;28;19920;-80
2022/07/26 01:40:44;;;;;;;;;;;;;;;17.63;100.00;-25563.41;5090249;28;19923;-74
2022/07/26 01:43:12;;;;;;;;;;;;;;;17.62;100.00;-25563.13;5089866;28;19942;-74
2022/07/26 01:45:37;;;;;;;;;;;;;;;17.59;100.00;-25562.41;5089727;28;19962;-76
2022/07/26 01:48:02;;;;;;;;;;;;;;;17.61;100.00;-25562.84;5089467;28;19955;-77
2022/07/26 01:50:28;;;;;;;;;;;;;;;17.62;100.00;-25563.00;5087133;28;19920;-74
2022/07/26 01:52:55;;;;;;;;;;;;;;;17.56;100.00;-25561.53;5107511;28;19951;-75
2022/07/26 01:55:20;;;;;;;;;;;;;;;17.56;100.00;-25561.53;5073489;28;19970;-74
2022/07/26 01:57:45;;;;;;;;;;;;;;;17.53;100.00;-25560.66;5073427;28;19920;-76
2022/07/26 02:00:11;;;;;;;;;;;;;;;17.54;100.00;-25560.97;5073072;28;19963;-75
2022/07/26 02:02:38;;;;;;;;;;;;;;;17.57;100.00;-25561.84;5106903;28;20322;-76
2022/07/26 02:05:04;;;;;;;;;;;;;;;17.59;100.00;-25562.25;5073513;28;19981;-75
2022/07/26 02:07:31;;;;;;;;;;;;;;;17.55;100.00;-25561.25;5073236;28;19916;-75
2022/07/26 02:09:56;;;;;;;;;;;;;;;17.55;100.00;-25561.25;5073621;28;19924;-74
2022/07/26 02:12:22;;;;;;;;;;;;;;;17.57;100.00;-25561.69;5072441;28;19913;-78
2022/07/26 02:14:47;;;;;;;;;;;;;;;17.53;100.00;-25560.53;5073534;28;19939;-76
2022/07/26 02:17:12;;;;;;;;;;;;;;;17.49;100.00;-25559.38;5075231;28;20079;-77
2022/07/26 02:19:38;;;;;;;;;;;;;;;17.48;100.00;-25559.06;5077015;28;20021;-75
2022/07/26 02:22:03;;;;;;;;;;;;;;;17.47;100.00;-25558.94;5075223;28;19917;-78
2022/07/26 02:24:29;;;;;;;;;;;;;;;17.41;100.00;-25557.19;5074010;28;20396;-75
2022/07/26 02:26:55;;;;;;;;;;;;;;;17.45;100.00;-25558.19;5074925;28;20357;-74
2022/07/26 02:29:21;;;;;;;;;;;;;;;17.41;100.00;-25557.19;5075893;28;19921;-74
2022/07/26 02:31:46;;;;;;;;;;;;;;;17.35;100.00;-25555.44;5076813;28;19943;-76
2022/07/26 02:34:11;;;;;;;;;;;;;;;17.33;100.00;-25555.00;5073822;28;19920;-77
2022/07/26 02:36:37;;;;;;;;;;;;;;;17.32;100.00;-25554.72;5075433;28;19942;-76
2022/07/26 02:39:02;;;;;;;;;;;;;;;17.37;100.00;-25556.03;5072600;28;20337;-77
2022/07/26 02:41:28;;;;;;;;;;;;;;;17.33;100.00;-25554.88;5072028;28;20377;-74
2022/07/26 02:43:53;;;;;;;;;;;;;;;17.30;100.00;-25554.16;5073303;28;20365;-74
2022/07/26 02:46:18;;;;;;;;;;;;;;;17.30;100.00;-25554.16;5073980;28;19969;-74
2022/07/26 02:48:43;;;;;;;;;;;;;;;17.26;100.00;-25553.00;5072479;28;19921;-75
2022/07/26 02:51:09;;;;;;;;;;;;;;;17.21;100.00;-25551.69;5071662;28;20552;-75
2022/07/26 02:53:34;;;;;;;;;;;;;;;17.20;100.00;-25551.41;5072000;28;19969;-75
2022/07/26 02:55:59;;;;;;;;;;;;;;;17.17;100.00;-25550.53;5071317;28;20357;-73
2022/07/26 02:58:25;;;;;;;;;;;;;;;17.14;100.00;-25549.50;5071308;28;19916;-74
2022/07/26 03:00:51;;;;;;;;;;;;;;;17.11;100.00;-25548.63;5071933;28;19916;-77
2022/07/26 03:03:17;;;;;;;;;;;;;;;17.13;100.00;-25549.22;5071881;28;19978;-74
2022/07/26 03:05:42;;;;;;;;;;;;;;;17.17;100.00;-25550.53;5072823;28;19924;-80
2022/07/26 03:08:07;;;;;;;;;;;;;;;17.24;100.00;-25552.41;5072607;28;19917;-77
2022/07/26 03:10:33;;;;;;;;;;;;;;;17.22;100.00;-25551.97;5072854;28;19939;-79
2022/07/26 03:13:01;;;;;;;;;;;;;;;17.22;100.00;-25551.97;5071588;28;19961;-79
2022/07/26 03:15:26;;;;;;;;;;;;;;;17.14;100.00;-25549.66;5072263;28;19962;-79
2022/07/26 03:17:52;;;;;;;;;;;;;;;17.07;100.00;-25547.63;5072322;28;19959;-79
2022/07/26 03:20:17;;;;;;;;;;;;;;;17.04;100.00;-25546.75;5071617;28;19923;-74
2022/07/26 03:22:46;;;;;;;;;;;;;;;17.01;100.00;-25545.88;5071627;28;20003;-79
2022/07/26 03:25:12;;;;;;;;;;;;;;;16.96;100.00;-25544.44;5071732;28;19920;-77
2022/07/26 03:27:37;;;;;;;;;;;;;;;16.95;100.00;-25544.16;5088648;28;19927;-79
2022/07/26 03:30:03;;;;;;;;;;;;;;;16.95;100.00;-25544.28;5105444;28;20288;-75
2022/07/26 03:32:28;;;;;;;;;;;;;;;16.92;100.00;-25543.28;5071728;28;20292;-77
2022/07/26 03:34:54;;;;;;;;;;;;;;;16.86;100.00;-25541.81;5071637;28;19919;-76
2022/07/26 03:37:19;;;;;;;;;;;;;;;16.88;100.00;-25542.25;5071029;28;19970;-74
2022/07/26 03:39:44;;;;;;;;;;;;;;;16.89;100.00;-25542.41;5071691;28;19913;-73
2022/07/26 03:42:09;;;;;;;;;;;;;;;16.83;100.00;-25540.81;5070677;28;19916;-78
2022/07/26 03:44:36;;;;;;;;;;;;;;;16.86;100.00;-25541.69;5070875;28;19917;-74
2022/07/26 03:47:01;;;;;;;;;;;;;;;16.85;100.00;-25541.53;5070906;28;19928;-73
2022/07/26 03:49:27;;;;;;;;;;;;;;;16.86;100.00;-25541.69;5070771;28;20383;-75
2022/07/26 03:51:54;;;;;;;;;;;;;;;16.88;100.00;-25542.25;5087209;28;19927;-78
2022/07/26 03:54:19;;;;;;;;;;;;;;;16.89;100.00;-25542.56;5074303;28;19920;-73
2022/07/26 03:56:44;;;;;;;;;;;;;;;16.92;100.00;-25543.28;5091019;28;19977;-74
2022/07/26 03:59:10;;;;;;;;;;;;;;;16.91;100.00;-25542.97;5090275;28;19916;-74
2022/07/26 04:01:36;;;;;;;;;;;;;;;16.83;100.00;-25540.81;5090530;28;19916;-73
2022/07/26 04:04:01;;;;;;;;;;;;;;;16.88;100.00;-25542.13;5090292;28;20638;-74
2022/07/26 04:06:27;;;;;;;;;;;;;;;16.85;100.00;-25541.53;5090711;28;19912;-75
2022/07/26 04:08:52;;;;;;;;;;;;;;;16.85;100.00;-25541.38;5090636;28;20069;-75
2022/07/26 04:11:18;;;;;;;;;;;;;;;16.85;100.00;-25541.38;5090187;28;20379;-79
2022/07/26 04:13:43;;;;;;;;;;;;;;;16.85;100.00;-25541.53;5090071;28;20012;-77
2022/07/26 04:16:08;;;;;;;;;;;;;;;16.95;100.00;-25544.16;5090374;28;19916;-73
2022/07/26 04:18:34;;;;;;;;;;;;;;;16.92;100.00;-25543.28;5091548;28;19912;-74
2022/07/26 04:20:59;;;;;;;;;;;;;;;16.96;100.00;-25544.44;5090021;28;20380;-73
2022/07/26 04:23:25;;;;;;;;;;;;;;;16.91;100.00;-25542.97;5090257;28;19949;-74
2022/07/26 04:25:50;;;;;;;;;;;;;;;16.82;100.00;-25540.50;5090417;28;19923;-76
2022/07/26 04:28:15;;;;;;;;;;;;;;;16.86;100.00;-25541.81;5090221;28;19922;-74
2022/07/26 04:30:41;;;;;;;;;;;;;;;16.86;100.00;-25541.69;5090362;28;19942;-73
2022/07/26 04:33:25;;;;;;;;;;;;;;;16.85;100.00;-25541.53;5058410;28;20434;-75
2022/07/26 04:35:52;;;;;;;;;;;;;;;16.82;100.00;-25540.66;5090217;28;20034;-73
2022/07/26 04:38:17;;;;;;;;;;;;;;;16.81;100.00;-25540.22;5089683;28;19923;-74
2022/07/26 04:40:43;;;;;;;;;;;;;;;16.78;100.00;-25539.50;5089668;28;19929;-79
2022/07/26 04:43:14;;;;;;;;;;;;;;;16.80;100.00;-25540.06;5089811;28;19924;-79
2022/07/26 04:45:42;;;;;;;;;;;;;;;16.81;100.00;-25540.22;5090235;28;20280;-72
2022/07/26 04:48:07;;;;;;;;;;;;;;;16.81;100.00;-25540.22;5090417;28;20401;-80
2022/07/26 04:50:32;;;;;;;;;;;;;;;16.89;100.00;-25542.41;5085222;28;19920;-76
2022/07/26 04:52:59;;;;;;;;;;;;;;;16.96;100.00;-25544.44;5070284;28;19916;-76
2022/07/26 04:55:24;;;;;;;;;;;;;;;17.06;100.00;-25547.34;5070587;28;19917;-79
2022/07/26 04:57:49;;;;;;;;;;;;;;;17.16;100.00;-25550.22;5070340;28;20026;-77
2022/07/26 05:00:15;;;;;;;;;;;;;;;17.25;100.00;-25552.69;5070768;28;19923;-78
2022/07/26 05:02:41;;;;;;;;;;;;;;;17.20;100.00;-25551.41;5070661;28;20422;-80
2022/07/26 05:05:06;;;;;;;;;;;;;;;17.26;100.00;-25553.00;5071005;28;19956;-79
2022/07/26 05:07:39;;;;;;;;;;;;;;;17.25;100.00;-25552.56;5071428;28;20368;-80
2022/07/26 05:10:05;;;;;;;;;;;;;;;17.36;100.00;-25555.75;5071178;28;20028;-79
2022/07/26 05:12:30;;;;;;;;;;;;;;;17.30;100.00;-25554.00;5071122;28;19916;-80
2022/07/26 05:14:56;;;;;;;;;;;;;;;17.21;100.00;-25551.53;5071015;28;19917;-79
2022/07/26 05:17:21;;;;;;;;;;;;;;;17.15;100.00;-25549.94;5072281;28;19963;-78
2022/07/26 05:19:46;;;;;;;;;;;;;;;17.01;100.00;-25545.88;5072593;28;19916;-78
2022/07/26 05:22:11;;;;;;;;;;;;;;;16.88;100.00;-25542.13;5069078;28;19923;-80
2022/07/26 05:24:38;;;;;;;;;;;;;;;16.84;100.00;-25541.09;5073082;28;19987;-81
2022/07/26 05:27:03;;;;;;;;;;;;;;;16.68;100.00;-25536.59;5075144;28;19927;-78
2022/07/26 05:29:28;;;;;;;;;;;;;;;16.44;100.00;-25529.78;5075229;28;19995;-78
2022/07/26 05:31:54;;;;;;;;;;;;;;;16.35;100.00;-25527.16;5109266;28;19966;-81
2022/07/26 05:34:21;;;;;;;;;;;;;;;16.30;100.00;-25525.84;5093364;28;20297;-86
2022/07/26 05:36:47;;;;;;;;;;;;;;;16.37;100.00;-25527.88;5079785;28;19916;-83
2022/07/26 05:39:14;;;;;;;;;;;;;;;16.20;100.00;-25523.09;5090185;28;19916;-85
2022/07/26 05:41:50;;;;;;;;;;;;;;;16.21;83.48;-25523.25;5079488;28;19934;-85
2022/07/26 05:44:22;;;;;;;;;;;;;;;16.06;77.04;-25519.03;5078284;28;19966;-82
2022/07/26 05:46:47;;;;;;;;;;;;;;;16.03;74.37;-25518.28;5059738;28;19928;-82
2022/07/26 05:49:12;;;;;;;;;;;;;;;15.81;73.40;-25512.06;5076365;28;20699;-81
2022/07/26 05:51:38;;;;;;;;;;;;;;;15.85;72.73;-25513.22;5074796;28;19927;-81
2022/07/26 05:54:04;;;;;;;;;;;;;;;15.93;72.04;-25515.41;5074452;28;19970;-80
2022/07/26 05:56:31;;;;;;;;;;;;;;;16.04;70.95;-25518.59;5074976;28;19916;-81
2022/07/26 05:58:56;;;;;;;;;;;;;;;16.12;70.77;-25520.91;5074640;28;19916;-78
2022/07/26 06:01:21;;;;;;;;;;;;;;;16.03;70.55;-25518.28;5072715;28;19930;-77
2022/07/26 06:03:48;;;;;;;;;;;;;;;16.37;70.11;-25527.88;5072796;28;19916;-78
2022/07/26 06:06:13;;;;;;;;;;;;;;;16.32;69.99;-25526.44;5072765;28;19924;-75
2022/07/26 06:08:39;;;;;;;;;;;;;;;16.26;69.97;-25524.84;5073199;28;20372;-76
2022/07/26 06:11:04;;;;;;;;;;;;;;;16.48;69.75;-25531.09;5072618;28;19924;-74
2022/07/26 06:13:31;;;;;;;;;;;;;;;16.66;69.62;-25536.16;5072637;28;19912;-76
2022/07/26 06:15:56;;;;;;;;;;;;;;;16.55;69.53;-25532.81;5072352;28;20003;-75
2022/07/26 06:18:21;;;;;;;;;;;;;;;16.50;69.55;-25531.66;5072124;28;20364;-75
2022/07/26 06:20:47;;;;;;;;;;;;;;;16.48;69.71;-25531.09;5072283;28;19917;-76
2022/07/26 06:23:13;;;;;;;;;;;;;;;16.39;70.00;-25528.47;5072135;28;20400;-79
2022/07/26 06:25:38;;;;;;;;;;;;;;;16.42;70.09;-25529.34;5072234;28;19916;-79
2022/07/26 06:28:04;;;;;;;;;;;;;;;16.39;70.18;-25528.31;5073451;28;19916;-77
2022/07/26 06:30:29;;;;;;;;;;;;;;;16.48;70.17;-25531.09;5073078;28;20003;-79
2022/07/26 06:32:55;;;;;;;;;;;;;;;16.54;70.12;-25532.53;5072778;28;20070;-78
2022/07/26 06:35:20;;;;;;;;;;;;;;;16.62;70.21;-25535.00;5081851;28;19924;-81
2022/07/26 06:37:46;;;;;;;;;;;;;;;16.70;70.28;-25537.16;5093798;28;20411;-82
2022/07/26 06:40:11;;;;;;;;;;;;;;;16.79;70.18;-25539.63;5093062;28;19919;-78
2022/07/26 06:42:39;;;;;;;;;;;;;;;16.64;70.40;-25535.59;5093978;28;19920;-81
2022/07/26 06:45:05;;;;;;;;;;;;;;;16.59;70.72;-25534.13;5093633;28;19916;-78
2022/07/26 06:47:30;;;;;;;;;;;;;;;16.61;70.95;-25534.56;5094237;28;20312;-79
2022/07/26 06:49:55;;;;;;;;;;;;;;;16.56;71.02;-25533.25;5093077;28;20356;-79
2022/07/26 06:52:21;;;;;;;;;;;;;;;16.79;70.80;-25539.78;5094222;28;19927;-81
2022/07/26 06:54:46;;;;;;;;;;;;;;;16.77;70.65;-25539.22;5098911;28;20330;-78
2022/07/26 06:57:15;;;;;;;;;;;;;;;16.80;70.67;-25540.06;5104706;28;19921;-79
2022/07/26 06:59:40;;;;;;;;;;;;;;;16.96;70.68;-25544.56;5102511;28;19970;-79
2022/07/26 07:02:05;;;;;;;;;;;;;;;17.16;71.01;-25550.09;5093719;28;20374;-82
2022/07/26 07:04:33;;;;;;;;;;;;;;;17.25;71.61;-25552.56;5107306;28;19931;-77
2022/07/26 07:07:02;;;;;;;;;;;;;;;17.31;72.69;-25554.28;5111572;28;20391;-77
2022/07/26 07:09:28;;;;;;;;;;;;;;;17.23;74.54;-25552.25;5112504;28;19916;-80
2022/07/26 07:11:53;;;;;;;;;;;;;;;17.33;80.26;-25555.00;5097862;28;19961;-79
2022/07/26 07:14:27;;;;;;;;;;;;;;;17.46;83.17;-25558.50;5094496;28;19916;-83
2022/07/26 07:16:52;;;;;;;;;;;;;;;17.49;95.87;-25559.50;5094877;28;19923;-79
2022/07/26 07:19:18;;;;;;;;;;;;;;;17.73;100.00;-25566.19;5093646;28;19916;-81
2022/07/26 07:21:43;;;;;;;;;;;;;;;17.92;100.00;-25571.69;5094194;28;19923;-81
2022/07/26 07:24:19;;;;;;;;;;;;;;;18.17;100.00;-25578.63;5095304;28;19947;-80
2022/07/26 07:26:45;;;;;;;;;;;;;;;18.36;100.00;-25583.84;5093818;28;19912;-81
2022/07/26 07:29:13;;;;;;;;;;;;;;;18.47;100.00;-25587.03;5092990;28;19942;-82
2022/07/26 07:31:39;;;;;;;;;;;;;;;18.30;100.00;-25582.41;5093834;28;19947;-82
2022/07/26 07:34:08;;;;;;;;;;;;;;;18.19;100.00;-25579.22;5094426;28;19969;-82
2022/07/26 07:36:34;;;;;;;;;;;;;;;18.08;100.00;-25576.03;5093509;28;19939;-82
2022/07/26 07:38:59;;;;;;;;;;;;;;;17.89;100.00;-25570.66;5093786;28;20364;-82
2022/07/26 07:41:24;;;;;;;;;;;;;;;17.96;100.00;-25572.56;5093591;28;20003;-82
2022/07/26 07:43:56;;;;;;;;;;;;;;;17.94;100.00;-25572.25;5093577;28;20019;-83
2022/07/26 07:46:21;;;;;;;;;;;;;;;17.91;100.00;-25571.41;5092077;28;19927;-82
2022/07/26 07:48:46;;;;;;;;;;;;;;;17.49;100.00;-25559.38;5092234;28;19919;-79
2022/07/26 07:51:12;;;;;;;;;;;;;;;17.03;100.00;-25546.47;5093180;28;20029;-81
2022/07/26 07:53:37;;;;;;;;;;;;;;;16.95;100.00;-25544.16;5091925;28;19916;-78
2022/07/26 07:56:03;;;;;;;;;;;;;;;16.85;100.00;-25541.38;5091373;28;20364;-78
2022/07/26 07:58:28;;;;;;;;;;;;;;;16.74;100.00;-25538.34;5091375;28;20293;-76
2022/07/26 08:00:53;;;;;;;;;;;;;;;16.64;100.00;-25535.59;5091517;28;19951;-76
2022/07/26 08:03:19;;;;;;;;;;;;;;;16.72;100.00;-25537.59;5091535;28;19922;-75
2022/07/26 08:05:45;;;;;;;;;;;;;;;16.74;100.00;-25538.19;5091416;28;20222;-75
2022/07/26 08:08:10;;;;;;;;;;;;;;;16.80;100.00;-25540.06;5091751;28;19923;-75
2022/07/26 08:10:35;;;;;;;;;;;;;;;16.91;100.00;-25542.97;5092044;28;19916;-78
2022/07/26 08:13:01;;;;;;;;;;;;;;;17.08;100.00;-25547.78;5091664;28;19950;-75
2022/07/26 08:15:26;;;;;;;;;;;;;;;17.04;100.00;-25546.75;5092011;28;19975;-76
2022/07/26 08:17:52;;;;;;;;;;;;;;;17.36;100.00;-25555.88;5091210;28;19920;-74
2022/07/26 08:20:17;;;;;;;;;;;;;;;17.72;100.00;-25566.03;5091739;28;19916;-76
2022/07/26 08:22:42;;;;;;;;;;;;;;;18.15;100.00;-25577.91;5090962;28;19916;-74
2022/07/26 08:25:08;;;;;;;;;;;;;;;19.03;100.00;-25602.78;5091185;28;19942;-76
2022/07/26 08:27:33;;;;;;;;;;;;;;;19.76;100.00;-25623.13;5090527;28;20019;-76
2022/07/26 08:29:59;;;;;;;;;;;;;;;20.70;100.00;-25649.69;5090882;28;19920;-75
2022/07/26 08:32:24;;;;;;;;;;;;;;;20.88;100.00;-25654.56;5090922;28;19916;-75
2022/07/26 08:34:49;;;;;;;;;;;;;;;20.51;100.00;-10362.06;5091220;28;19919;-75
2022/07/26 08:37:14;;;;;;;;;;;;;;;19.83;100.00;2296.13;5090893;28;19917;-76
2022/07/26 08:39:40;;;;;;;;;;;;;;;19.55;100.00;5961.31;5091205;28;19912;-79
2022/07/26 08:42:11;;;;;;;;;;;;;;;19.05;100.00;5617.09;5091308;28;20351;-76
2022/07/26 08:44:39;;;;;;;;;;;;;;;18.58;100.00;7607.00;5091389;28;19916;-77
2022/07/26 08:47:05;;;;;;;;;;;;;;;18.27;100.00;1273.47;5090549;28;20441;-78
2022/07/26 08:49:30;;;;;;;;;;;;;;;18.26;100.00;-8694.00;5091257;28;19920;-74
2022/07/26 08:51:57;;;;;;;;;;;;;;;18.30;100.00;-15325.03;5090845;28;19973;-75
2022/07/26 08:54:26;;;;;;;;;;;;;;;18.47;100.00;-20955.84;5092240;28;19920;-76
2022/07/26 08:56:51;;;;;;;;;;;;;;;19.05;100.00;-19311.69;5091817;28;20267;-78
2022/07/26 08:59:17;;;;;;;;;;;;;;;20.09;100.00;-6699.72;5094292;28;20026;-74
2022/07/26 09:01:53;;;;;;;;;;;;;;;20.46;100.00;13676.03;5095318;28;19955;-76
2022/07/26 09:04:23;;;;;;;;;;;;;;;20.30;100.00;13335.84;5094844;28;19948;-84
2022/07/26 09:06:58;;;;;;;;;;;;;;;20.47;100.00;23065.06;5096387;28;19947;-83
2022/07/26 09:09:23;;;;;;;;;;;;;;;20.05;100.00;45249.81;5098363;28;19920;-84
2022/07/26 09:11:49;;;;;;;;;;;;;;;19.85;100.00;44558.91;5097243;28;20011;-85
2022/07/26 09:14:14;;;;;;;;;;;;;;;19.49;100.00;34766.75;5096899;28;20298;-83
2022/07/26 09:16:40;;;;;;;;;;;;;;;19.21;100.00;13633.72;5097180;28;19955;-81
2022/07/26 09:19:20;;;;;;;;;;;;;;;19.00;100.00;6283.06;5080330;28;19920;-85
2022/07/26 09:21:46;;;;;;;;;;;;;;;18.86;100.00;-1048.44;5097032;28;19916;-83
2022/07/26 09:24:12;;;;;;;;;;;;;;;18.74;100.00;5277.25;5099852;28;19920;-84
2022/07/26 09:26:38;;;;;;;;;;;;;;;18.42;100.00;13941.28;5098336;28;19961;-77
2022/07/26 09:29:10;;;;;;;;;;;;;;;18.14;100.00;6930.09;5094457;28;19920;-80
2022/07/26 09:31:36;;;;;;;;;;;;;;;18.05;100.00;3931.78;5096068;28;19923;-77
2022/07/26 09:34:03;;;;;;;;;;;;;;;18.04;100.00;5262.97;5095398;28;19920;-80
2022/07/26 09:36:29;;;;;;;;;;;;;;;18.07;100.00;938.16;5095678;28;19958;-82
2022/07/26 09:39:03;;;;;;;;;;;;;;;18.08;100.00;-4378.94;5078029;28;19955;-80
2022/07/26 09:41:30;;;;;;;;;;;;;;;18.15;100.00;-13004.25;5095876;28;20488;-81
2022/07/26 09:43:59;;;;;;;;;;;;;;;18.20;100.00;-12010.28;5094671;28;20359;-77
2022/07/26 09:46:25;;;;;;;;;;;;;;;18.46;100.00;-11680.47;5095390;28;20276;-80
2022/07/26 09:48:51;;;;;;;;;;;;;;;18.73;100.00;-8362.69;5095319;28;19916;-83
2022/07/26 09:51:33;;;;;;;;;;;;;;;18.81;100.00;-3377.59;5094420;28;19916;-84
2022/07/26 09:53:58;;;;;;;;;;;;;;;18.57;100.00;-6702.13;5096428;28;19924;-83
2022/07/26 09:56:23;;;;;;;;;;;;;;;18.43;100.00;-9358.03;5096325;28;19916;-83
2022/07/26 09:58:50;;;;;;;;;;;;;;;18.58;100.00;-9026.47;5096225;28;19920;-82
2022/07/26 10:01:16;;;;;;;;;;;;;;;18.66;100.00;-10686.28;5094827;28;19917;-82
2022/07/26 10:03:46;;;;;;;;;;;;;;;18.78;100.00;-5372.56;5095289;28;20431;-85
2022/07/26 10:06:11;;;;;;;;;;;;;;;18.59;100.00;-6702.09;5095534;28;19920;-81
2022/07/26 10:08:37;;;;;;;;;;;;;;;18.82;100.00;-3710.06;5095308;28;19916;-85
2022/07/26 10:11:04;;;;;;;;;;;;;;;18.80;100.00;282.25;5093710;28;19938;-84
2022/07/26 10:13:43;;;;;;;;;;;;;;;19.04;100.00;2616.84;5095040;28;20335;-86
2022/07/26 10:16:27;;;;;;;;;;;;;;;19.02;100.00;4283.00;5094982;28;20019;-86
2022/07/26 10:18:52;;;;;;;;;;;;;;;19.33;100.00;2954.97;5095483;28;19959;-86
2022/07/26 10:21:18;;;;;;;;;;;;;;;19.12;100.00;14967.78;5096316;28;19948;-80
2022/07/26 10:23:46;;;;;;;;;;;;;;;19.38;100.00;16315.34;5097915;28;19924;-86
2022/07/26 10:26:31;;;;;;;;;;;;;;;19.47;100.00;4624.94;5095684;28;19972;-82
2022/07/26 10:29:15;;;;;;;;;;;;;;;19.89;100.00;4299.44;5092824;28;19943;-79
2022/07/26 10:31:41;;;;;;;;;;;;;;;20.18;100.00;18356.03;5093328;28;19982;-77
2022/07/26 10:34:08;;;;;;;;;;;;;;;20.03;100.00;44573.81;5093525;28;19969;-81
2022/07/26 10:36:34;;;;;;;;;;;;;;;20.23;100.00;46277.53;5092482;28;20571;-79
2022/07/26 10:39:13;;;;;;;;;;;;;;;20.12;100.00;55053.09;5093412;28;19916;-78
2022/07/26 10:41:40;;;;;;;;;;;;;;;20.23;100.00;39194.72;5093959;28;19923;-79
2022/07/26 10:44:13;;;;;;;;;;;;;;;20.11;100.00;60806.72;5093225;28;19972;-80
2022/07/26 10:46:55;;;;;;;;;;;;;;;20.02;100.00;71651.25;5092941;28;19976;-79
2022/07/26 10:49:25;;;;;;;;;;;;;;;19.82;100.00;97513.13;5093098;28;20372;-80
2022/07/26 10:52:03;;;;;;;;;;;;;;;19.91;100.00;96502.63;5093733;28;19923;-78
2022/07/26 10:54:29;;;;;;;;;;;;;;;20.42;100.00;121628.19;5093064;28;20270;-79
2022/07/26 10:56:54;;;;;;;;;;;;;;;20.50;100.00;147877.56;5093118;28;19916;-78
2022/07/26 10:59:32;;;;;;;;;;;;;;;20.90;100.00;138287.38;5093077;28;19923;-78
2022/07/26 11:01:57;;;;;;;;;;;;;;;20.35;100.00;147840.38;5090007;28;19963;-79
2022/07/26 11:04:24;;;;;;;;;;;;;;;20.01;100.00;147755.88;5092917;28;19963;-79
2022/07/26 11:06:50;;;;;;;;;;;;;;;19.82;100.00;147708.47;5093341;28;20393;-79
2022/07/26 11:09:17;;;;;;;;;;;;;;;19.82;100.00;147707.19;5092924;28;19917;-79
2022/07/26 11:11:44;;;;;;;;;;;;;;;19.81;100.00;147705.94;5093200;28;19923;-80
2022/07/26 11:14:13;;;;;;;;;;;;;;;19.83;100.00;147711.03;5092956;28;19964;-80
2022/07/26 11:16:41;;;;;;;;;;;;;;;19.74;100.00;147687.94;5093426;28;20425;-78
2022/07/26 11:19:14;;;;;;;;;;;;;;;20.01;100.00;147755.88;5092823;28;19924;-78
2022/07/26 11:21:40;;;;;;;;;;;;;;;20.35;100.00;147840.38;5092633;28;20386;-78
2022/07/26 11:24:07;;;;;;;;;;;;;;;20.67;100.00;147919.88;5093095;28;19998;-78
2022/07/26 11:26:39;;;;;;;;;;;;;;;21.04;100.00;148010.91;5076253;28;19923;-78
2022/07/26 11:29:04;;;;;;;;;;;;;;;20.76;100.00;147941.69;5092618;28;19916;-79
2022/07/26 11:31:32;;;;;;;;;;;;;;;20.85;100.00;147963.44;5097867;28;19955;-78
2022/07/26 11:34:00;;;;;;;;;;;;;;;21.06;100.00;148016.00;5102168;28;19916;-78
2022/07/26 11:36:31;;;;;;;;;;;;;;;21.11;100.00;148030.06;5099680;28;19939;-80
2022/07/26 11:38:57;;;;;;;;;;;;;;;21.17;100.00;148044.19;5095976;28;19916;-83
2022/07/26 11:41:26;;;;;;;;;;;;;;;21.02;100.00;148005.75;5102852;28;19927;-78
2022/07/26 11:43:53;;;;;;;;;;;;;;;20.81;100.00;147954.50;5104110;28;19965;-79
2022/07/26 11:46:19;;;;;;;;;;;;;;;20.68;100.00;147922.47;5085864;28;19920;-82
2022/07/26 11:48:49;;;;;;;;;;;;;;;20.36;100.00;147842.97;5077899;28;19967;-80
2022/07/26 11:51:15;;;;;;;;;;;;;;;20.43;100.00;147860.91;5092718;28;20007;-83
2022/07/26 11:53:58;;;;;;;;;;;;;;;20.40;100.00;147853.22;5094312;28;19943;-81
2022/07/26 11:56:24;;;;;;;;;;;;;;;20.27;100.00;147821.22;5093261;28;19931;-82
2022/07/26 11:58:50;;;;;;;;;;;;;;;20.59;100.00;147900.63;5093112;28;19917;-84
2022/07/26 12:01:19;;;;;;;;;;;;;;;20.63;100.00;147910.88;5092630;28;20006;-83
2022/07/26 12:03:48;;;;;;;;;;;;;;;20.78;100.00;147948.06;5094436;28;19968;-80
2022/07/26 12:06:16;;;;;;;;;;;;;;;21.24;100.00;148060.84;5092730;28;20622;-80
2022/07/26 12:08:44;;;;;;;;;;;;;;;21.42;100.00;148107.00;5092863;28;20068;-82
2022/07/26 12:11:10;;;;;;;;;;;;;;;21.45;100.00;148114.69;5094572;28;19912;-82
2022/07/26 12:13:57;;;;;;;;;;;;;;;21.40;100.00;148100.63;5092658;28;19916;-80
2022/07/26 12:16:39;;;;;;;;;;;;;;;21.14;100.00;148036.50;5092672;28;20420;-80
2022/07/26 12:19:05;;;;;;;;;;;;;;;21.14;100.00;148037.78;5093069;28;19955;-84
2022/07/26 12:21:43;;;;;;;;;;;;;;;20.91;100.00;147980.13;5092752;28;20061;-83
2022/07/26 12:24:10;;;;;;;;;;;;;;;20.82;100.00;147957.06;5092508;28;19976;-83
2022/07/26 12:26:36;;;;;;;;;;;;;;;20.69;100.00;147923.72;5093851;28;19912;-83
2022/07/26 12:31:58;;;;;;;;;;;;;;;20.70;100.00;147926.31;5053898;28;19931;-83